sensor_id;sensor_type;location;lat;lon;timestamp;temperature;humidity
49042;DHT22;34859;51.608;11.462;2022-08-27T00:01:21;20.50;99.90
49042;DHT22;34859;51.608;11.462;2022-08-27T00:04:05;20.50;99.90
49042;DHT22;34859;51.608;11.462;2022-08-27T00:06:46;20.50;99.90
49042;DHT22;34859;51.608;11.462;2022-08-27T00:09:31;20.60;99.90
49042;DHT22;34859;51.608;11.462;2022-08-27T00:12:15;20.60;99.90
49042;DHT22;34859;51.608;11.462;2022-08-27T00:14:59;20.60;99.90
49042;DHT22;34859;51.608;11.462;2022-08-27T00:17:45;20.60;99.90
49042;DHT22;34859;51.608;11.462;2022-08-27T00:20:29;20.60;99.90
49042;DHT22;34859;51.608;11.462;2022-08-27T00:23:13;20.60;99.90
49042;DHT22;34859;51.608;11.462;2022-08-27T00:25:58;20.60;99.90
49042;DHT22;34859;51.608;11.462;2022-08-27T00:28:43;20.60;99.90
49042;DHT22;34859;51.608;11.462;2022-08-27T00:31:28;20.60;99.90
49042;DHT22;34859;51.608;11.462;2022-08-27T00:34:12;20.60;99.90
49042;DHT22;34859;51.608;11.462;2022-08-27T00:36:57;20.60;99.90
49042;DHT22;34859;51.608;11.462;2022-08-27T00:39:41;20.60;99.90
49042;DHT22;34859;51.608;11.462;2022-08-27T00:42:25;20.60;99.90
49042;DHT22;34859;51.608;11.462;2022-08-27T00:45:09;20.60;99.90
49042;DHT22;34859;51.608;11.462;2022-08-27T00:47:57;20.60;99.90
49042;DHT22;34859;51.608;11.462;2022-08-27T00:50:46;20.60;99.90
49042;DHT22;34859;51.608;11.462;2022-08-27T00:53:32;20.60;99.90
49042;DHT22;34859;51.608;11.462;2022-08-27T00:56:27;20.60;99.90
49042;DHT22;34859;51.608;11.462;2022-08-27T00:59:14;20.50;99.90
49042;DHT22;34859;51.608;11.462;2022-08-27T01:02:00;20.40;99.90
49042;DHT22;34859;51.608;11.462;2022-08-27T01:05:09;20.40;99.90
49042;DHT22;34859;51.608;11.462;2022-08-27T01:07:58;20.30;99.90
49042;DHT22;34859;51.608;11.462;2022-08-27T01:10:45;20.30;99.90
49042;DHT22;34859;51.608;11.462;2022-08-27T01:13:31;20.30;99.90
49042;DHT22;34859;51.608;11.462;2022-08-27T01:16:21;20.30;99.90
49042;DHT22;34859;51.608;11.462;2022-08-27T01:19:17;20.30;99.90
49042;DHT22;34859;51.608;11.462;2022-08-27T01:25:14;20.20;99.90
49042;DHT22;34859;51.608;11.462;2022-08-27T01:28:00;20.20;99.90
49042;DHT22;34859;51.608;11.462;2022-08-27T01:30:45;20.20;99.90
49042;DHT22;34859;51.608;11.462;2022-08-27T01:33:30;20.10;99.90
49042;DHT22;34859;51.608;11.462;2022-08-27T01:36:14;20.20;99.90
49042;DHT22;34859;51.608;11.462;2022-08-27T01:38:59;20.10;99.90
49042;DHT22;34859;51.608;11.462;2022-08-27T01:41:43;20.10;99.90
49042;DHT22;34859;51.608;11.462;2022-08-27T01:44:25;20.10;99.90
49042;DHT22;34859;51.608;11.462;2022-08-27T01:47:09;20.10;99.90
49042;DHT22;34859;51.608;11.462;2022-08-27T01:49:54;20.00;99.90
49042;DHT22;34859;51.608;11.462;2022-08-27T01:52:38;20.00;99.90
49042;DHT22;34859;51.608;11.462;2022-08-27T01:55:25;20.00;99.90
49042;DHT22;34859;51.608;11.462;2022-08-27T01:58:10;20.00;99.90
49042;DHT22;34859;51.608;11.462;2022-08-27T02:01:01;20.00;99.90
49042;DHT22;34859;51.608;11.462;2022-08-27T02:03:46;20.00;99.90
49042;DHT22;34859;51.608;11.462;2022-08-27T02:06:31;19.90;99.90
49042;DHT22;34859;51.608;11.462;2022-08-27T02:09:16;19.90;99.90
49042;DHT22;34859;51.608;11.462;2022-08-27T02:12:00;19.90;99.90
49042;DHT22;34859;51.608;11.462;2022-08-27T02:14:45;19.90;99.90
49042;DHT22;34859;51.608;11.462;2022-08-27T02:17:29;19.90;99.90
49042;DHT22;34859;51.608;11.462;2022-08-27T02:20:13;20.00;99.90
49042;DHT22;34859;51.608;11.462;2022-08-27T02:22:58;19.90;99.90
49042;DHT22;34859;51.608;11.462;2022-08-27T02:25:42;20.00;99.90
49042;DHT22;34859;51.608;11.462;2022-08-27T02:28:26;20.00;99.90
49042;DHT22;34859;51.608;11.462;2022-08-27T02:31:10;19.90;99.90
49042;DHT22;34859;51.608;11.462;2022-08-27T02:33:54;20.00;99.90
49042;DHT22;34859;51.608;11.462;2022-08-27T02:36:39;20.00;99.90
49042;DHT22;34859;51.608;11.462;2022-08-27T02:39:23;20.00;99.90
49042;DHT22;34859;51.608;11.462;2022-08-27T02:42:07;20.00;99.90
49042;DHT22;34859;51.608;11.462;2022-08-27T02:44:51;19.90;99.90
49042;DHT22;34859;51.608;11.462;2022-08-27T02:47:36;19.90;99.90
49042;DHT22;34859;51.608;11.462;2022-08-27T02:50:20;20.00;99.90
49042;DHT22;34859;51.608;11.462;2022-08-27T02:53:03;19.90;99.90
49042;DHT22;34859;51.608;11.462;2022-08-27T02:55:48;20.00;99.90
49042;DHT22;34859;51.608;11.462;2022-08-27T02:58:33;20.00;99.90
49042;DHT22;34859;51.608;11.462;2022-08-27T03:01:17;20.00;99.90
49042;DHT22;34859;51.608;11.462;2022-08-27T03:03:58;20.00;99.90
49042;DHT22;34859;51.608;11.462;2022-08-27T03:06:42;19.90;99.90
49042;DHT22;34859;51.608;11.462;2022-08-27T03:09:26;20.00;99.90
49042;DHT22;34859;51.608;11.462;2022-08-27T03:12:08;20.00;99.90
49042;DHT22;34859;51.608;11.462;2022-08-27T03:14:52;20.00;99.90
49042;DHT22;34859;51.608;11.462;2022-08-27T03:17:36;20.00;99.90
49042;DHT22;34859;51.608;11.462;2022-08-27T03:20:40;20.00;99.90
49042;DHT22;34859;51.608;11.462;2022-08-27T03:23:28;20.00;99.90
49042;DHT22;34859;51.608;11.462;2022-08-27T03:26:13;20.00;99.90
49042;DHT22;34859;51.608;11.462;2022-08-27T03:28:57;20.00;99.90
49042;DHT22;34859;51.608;11.462;2022-08-27T03:31:42;20.00;99.90
49042;DHT22;34859;51.608;11.462;2022-08-27T03:34:26;19.90;99.90
49042;DHT22;34859;51.608;11.462;2022-08-27T03:37:10;20.00;99.90
49042;DHT22;34859;51.608;11.462;2022-08-27T03:39:54;19.90;99.90
49042;DHT22;34859;51.608;11.462;2022-08-27T03:42:38;20.00;99.90
49042;DHT22;34859;51.608;11.462;2022-08-27T03:45:22;20.00;99.90
49042;DHT22;34859;51.608;11.462;2022-08-27T03:48:06;20.00;99.90
49042;DHT22;34859;51.608;11.462;2022-08-27T03:50:50;20.00;99.90
49042;DHT22;34859;51.608;11.462;2022-08-27T03:53:37;20.00;99.90
49042;DHT22;34859;51.608;11.462;2022-08-27T03:56:21;20.00;99.90
49042;DHT22;34859;51.608;11.462;2022-08-27T03:59:06;20.00;99.90
49042;DHT22;34859;51.608;11.462;2022-08-27T04:01:50;20.00;99.90
49042;DHT22;34859;51.608;11.462;2022-08-27T04:04:34;20.00;99.90
49042;DHT22;34859;51.608;11.462;2022-08-27T04:07:18;20.00;99.90
49042;DHT22;34859;51.608;11.462;2022-08-27T04:10:03;20.00;99.90
49042;DHT22;34859;51.608;11.462;2022-08-27T04:12:45;20.00;99.90
49042;DHT22;34859;51.608;11.462;2022-08-27T04:15:29;20.00;99.90
49042;DHT22;34859;51.608;11.462;2022-08-27T04:18:15;20.00;99.90
49042;DHT22;34859;51.608;11.462;2022-08-27T04:21:05;20.00;99.90
49042;DHT22;34859;51.608;11.462;2022-08-27T04:23:49;20.00;99.90
49042;DHT22;34859;51.608;11.462;2022-08-27T04:26:33;20.00;99.90
49042;DHT22;34859;51.608;11.462;2022-08-27T04:29:17;20.00;99.90
49042;DHT22;34859;51.608;11.462;2022-08-27T04:32:03;20.00;99.90
49042;DHT22;34859;51.608;11.462;2022-08-27T04:34:47;20.00;99.90
49042;DHT22;34859;51.608;11.462;2022-08-27T04:37:32;20.00;99.90
49042;DHT22;34859;51.608;11.462;2022-08-27T04:40:17;20.00;99.90
49042;DHT22;34859;51.608;11.462;2022-08-27T04:43:01;20.00;99.90
49042;DHT22;34859;51.608;11.462;2022-08-27T04:45:47;20.00;99.90
49042;DHT22;34859;51.608;11.462;2022-08-27T04:48:31;20.00;99.90
49042;DHT22;34859;51.608;11.462;2022-08-27T04:51:16;20.00;99.90
49042;DHT22;34859;51.608;11.462;2022-08-27T04:54:02;20.00;99.90
49042;DHT22;34859;51.608;11.462;2022-08-27T04:56:47;19.90;99.90
49042;DHT22;34859;51.608;11.462;2022-08-27T04:59:32;19.90;99.90
49042;DHT22;34859;51.608;11.462;2022-08-27T05:02:17;19.90;99.90
49042;DHT22;34859;51.608;11.462;2022-08-27T05:05:02;19.80;99.90
49042;DHT22;34859;51.608;11.462;2022-08-27T05:07:46;19.80;99.90
49042;DHT22;34859;51.608;11.462;2022-08-27T05:10:30;19.80;99.90
49042;DHT22;34859;51.608;11.462;2022-08-27T05:13:14;19.70;99.90
49042;DHT22;34859;51.608;11.462;2022-08-27T05:16:06;19.70;99.90
49042;DHT22;34859;51.608;11.462;2022-08-27T05:18:51;19.70;99.90
49042;DHT22;34859;51.608;11.462;2022-08-27T05:21:37;19.60;99.90
49042;DHT22;34859;51.608;11.462;2022-08-27T05:24:22;19.60;99.90
49042;DHT22;34859;51.608;11.462;2022-08-27T05:27:06;19.60;99.90
49042;DHT22;34859;51.608;11.462;2022-08-27T05:29:50;19.60;99.90
49042;DHT22;34859;51.608;11.462;2022-08-27T05:32:32;19.60;99.90
49042;DHT22;34859;51.608;11.462;2022-08-27T05:35:16;19.60;99.90
49042;DHT22;34859;51.608;11.462;2022-08-27T05:38:02;19.60;99.90
49042;DHT22;34859;51.608;11.462;2022-08-27T05:40:46;19.60;99.90
49042;DHT22;34859;51.608;11.462;2022-08-27T05:43:28;19.60;99.90
49042;DHT22;34859;51.608;11.462;2022-08-27T05:46:14;19.50;99.90
49042;DHT22;34859;51.608;11.462;2022-08-27T05:48:59;19.50;99.90
49042;DHT22;34859;51.608;11.462;2022-08-27T05:51:41;19.50;99.90
49042;DHT22;34859;51.608;11.462;2022-08-27T05:54:25;19.50;99.90
49042;DHT22;34859;51.608;11.462;2022-08-27T05:57:09;19.40;99.90
49042;DHT22;34859;51.608;11.462;2022-08-27T05:59:53;19.40;99.90
49042;DHT22;34859;51.608;11.462;2022-08-27T06:02:57;19.40;99.90
49042;DHT22;34859;51.608;11.462;2022-08-27T06:05:41;19.50;99.90
49042;DHT22;34859;51.608;11.462;2022-08-27T06:08:25;19.40;99.90
49042;DHT22;34859;51.608;11.462;2022-08-27T06:11:09;19.50;99.90
49042;DHT22;34859;51.608;11.462;2022-08-27T06:13:54;19.50;99.90
49042;DHT22;34859;51.608;11.462;2022-08-27T06:16:40;19.40;99.90
49042;DHT22;34859;51.608;11.462;2022-08-27T06:19:25;19.40;99.90
49042;DHT22;34859;51.608;11.462;2022-08-27T06:22:09;19.40;99.90
49042;DHT22;34859;51.608;11.462;2022-08-27T06:24:53;19.40;99.90
49042;DHT22;34859;51.608;11.462;2022-08-27T06:27:37;19.40;99.90
49042;DHT22;34859;51.608;11.462;2022-08-27T06:30:21;19.40;99.90
49042;DHT22;34859;51.608;11.462;2022-08-27T06:33:05;19.50;99.90
49042;DHT22;34859;51.608;11.462;2022-08-27T06:35:49;19.40;99.90
49042;DHT22;34859;51.608;11.462;2022-08-27T06:38:34;19.40;99.90
49042;DHT22;34859;51.608;11.462;2022-08-27T06:41:21;19.30;99.90
49042;DHT22;34859;51.608;11.462;2022-08-27T06:44:05;19.30;99.90
49042;DHT22;34859;51.608;11.462;2022-08-27T06:46:50;19.40;99.90
49042;DHT22;34859;51.608;11.462;2022-08-27T06:49:37;19.30;99.90
49042;DHT22;34859;51.608;11.462;2022-08-27T06:52:23;19.30;99.90
49042;DHT22;34859;51.608;11.462;2022-08-27T06:55:07;19.30;99.90
49042;DHT22;34859;51.608;11.462;2022-08-27T06:57:54;19.30;99.90
49042;DHT22;34859;51.608;11.462;2022-08-27T07:00:39;19.30;99.90
49042;DHT22;34859;51.608;11.462;2022-08-27T07:03:24;19.30;99.90
49042;DHT22;34859;51.608;11.462;2022-08-27T07:06:10;19.40;99.90
49042;DHT22;34859;51.608;11.462;2022-08-27T07:08:54;19.50;99.90
49042;DHT22;34859;51.608;11.462;2022-08-27T07:11:40;19.40;99.90
49042;DHT22;34859;51.608;11.462;2022-08-27T07:14:23;19.40;99.90
49042;DHT22;34859;51.608;11.462;2022-08-27T07:17:08;19.30;99.90
49042;DHT22;34859;51.608;11.462;2022-08-27T07:19:52;19.30;99.90
49042;DHT22;34859;51.608;11.462;2022-08-27T07:22:39;19.40;99.90
49042;DHT22;34859;51.608;11.462;2022-08-27T07:25:24;19.40;99.90
49042;DHT22;34859;51.608;11.462;2022-08-27T07:28:09;19.40;99.90
49042;DHT22;34859;51.608;11.462;2022-08-27T07:30:53;19.50;99.90
49042;DHT22;34859;51.608;11.462;2022-08-27T07:33:38;19.40;99.90
49042;DHT22;34859;51.608;11.462;2022-08-27T07:36:23;19.30;99.90
49042;DHT22;34859;51.608;11.462;2022-08-27T07:39:07;19.40;99.90
49042;DHT22;34859;51.608;11.462;2022-08-27T07:41:55;19.40;99.90
49042;DHT22;34859;51.608;11.462;2022-08-27T07:44:58;19.40;99.90
49042;DHT22;34859;51.608;11.462;2022-08-27T07:47:42;19.50;99.90
49042;DHT22;34859;51.608;11.462;2022-08-27T07:50:26;19.60;99.90
49042;DHT22;34859;51.608;11.462;2022-08-27T07:53:10;19.60;99.90
49042;DHT22;34859;51.608;11.462;2022-08-27T07:55:55;19.70;99.90
49042;DHT22;34859;51.608;11.462;2022-08-27T07:58:40;19.70;99.90
49042;DHT22;34859;51.608;11.462;2022-08-27T08:01:24;19.70;99.90
49042;DHT22;34859;51.608;11.462;2022-08-27T08:04:09;19.80;99.90
49042;DHT22;34859;51.608;11.462;2022-08-27T08:06:53;19.80;99.90
49042;DHT22;34859;51.608;11.462;2022-08-27T08:09:38;19.80;99.90
49042;DHT22;34859;51.608;11.462;2022-08-27T08:12:22;19.80;99.90
49042;DHT22;34859;51.608;11.462;2022-08-27T08:15:08;19.70;99.90
49042;DHT22;34859;51.608;11.462;2022-08-27T08:17:53;19.70;99.90
49042;DHT22;34859;51.608;11.462;2022-08-27T08:20:37;19.70;99.90
49042;DHT22;34859;51.608;11.462;2022-08-27T08:23:21;19.70;99.90
49042;DHT22;34859;51.608;11.462;2022-08-27T08:26:08;19.60;99.90
49042;DHT22;34859;51.608;11.462;2022-08-27T08:28:53;19.60;99.90
49042;DHT22;34859;51.608;11.462;2022-08-27T08:31:37;19.60;99.90
49042;DHT22;34859;51.608;11.462;2022-08-27T08:34:21;19.60;99.90
49042;DHT22;34859;51.608;11.462;2022-08-27T08:37:06;19.60;99.90
49042;DHT22;34859;51.608;11.462;2022-08-27T08:39:50;19.60;99.90
49042;DHT22;34859;51.608;11.462;2022-08-27T08:42:51;19.60;99.90
49042;DHT22;34859;51.608;11.462;2022-08-27T08:45:36;19.50;99.90
49042;DHT22;34859;51.608;11.462;2022-08-27T08:48:26;19.50;99.90
49042;DHT22;34859;51.608;11.462;2022-08-27T08:51:32;19.50;99.90
49042;DHT22;34859;51.608;11.462;2022-08-27T08:54:18;19.50;99.90
49042;DHT22;34859;51.608;11.462;2022-08-27T08:57:25;19.60;99.90
49042;DHT22;34859;51.608;11.462;2022-08-27T09:00:12;19.80;99.90
49042;DHT22;34859;51.608;11.462;2022-08-27T09:02:57;19.90;99.90
49042;DHT22;34859;51.608;11.462;2022-08-27T09:05:47;19.80;99.90
49042;DHT22;34859;51.608;11.462;2022-08-27T09:08:37;19.70;99.90
49042;DHT22;34859;51.608;11.462;2022-08-27T09:11:26;19.70;99.90
49042;DHT22;34859;51.608;11.462;2022-08-27T09:17:08;19.60;99.90
49042;DHT22;34859;51.608;11.462;2022-08-27T09:19:52;19.60;99.90
49042;DHT22;34859;51.608;11.462;2022-08-27T09:23:00;19.60;99.90
49042;DHT22;34859;51.608;11.462;2022-08-27T09:25:48;19.60;99.90
49042;DHT22;34859;51.608;11.462;2022-08-27T09:28:31;19.60;99.90
49042;DHT22;34859;51.608;11.462;2022-08-27T09:31:36;19.60;99.90
49042;DHT22;34859;51.608;11.462;2022-08-27T09:34:26;19.60;99.90
49042;DHT22;34859;51.608;11.462;2022-08-27T09:37:17;19.60;99.90
49042;DHT22;34859;51.608;11.462;2022-08-27T09:40:17;19.60;99.90
49042;DHT22;34859;51.608;11.462;2022-08-27T09:46:06;19.50;99.90
49042;DHT22;34859;51.608;11.462;2022-08-27T09:48:50;19.60;99.90
49042;DHT22;34859;51.608;11.462;2022-08-27T09:51:41;19.60;99.90
49042;DHT22;34859;51.608;11.462;2022-08-27T09:54:47;19.70;99.90
49042;DHT22;34859;51.608;11.462;2022-08-27T09:57:46;19.80;99.90
49042;DHT22;34859;51.608;11.462;2022-08-27T10:00:40;19.90;99.90
49042;DHT22;34859;51.608;11.462;2022-08-27T10:03:25;20.00;99.90
49042;DHT22;34859;51.608;11.462;2022-08-27T10:06:09;20.20;99.90
49042;DHT22;34859;51.608;11.462;2022-08-27T10:09:02;20.40;99.90
49042;DHT22;34859;51.608;11.462;2022-08-27T10:15:15;20.50;99.90
49042;DHT22;34859;51.608;11.462;2022-08-27T10:18:11;20.40;99.90
49042;DHT22;34859;51.608;11.462;2022-08-27T10:21:18;20.40;99.90
49042;DHT22;34859;51.608;11.462;2022-08-27T10:24:18;20.30;99.90
49042;DHT22;34859;51.608;11.462;2022-08-27T10:27:32;20.20;99.90
49042;DHT22;34859;51.608;11.462;2022-08-27T10:30:16;20.10;99.90
49042;DHT22;34859;51.608;11.462;2022-08-27T10:33:36;20.10;99.90
49042;DHT22;34859;51.608;11.462;2022-08-27T10:36:25;19.90;99.90
49042;DHT22;34859;51.608;11.462;2022-08-27T10:45:15;20.30;99.90
49042;DHT22;34859;51.608;11.462;2022-08-27T10:51:00;20.40;99.90
49042;DHT22;34859;51.608;11.462;2022-08-27T11:00:07;20.70;99.90
49042;DHT22;34859;51.608;11.462;2022-08-27T11:03:10;20.70;99.90
49042;DHT22;34859;51.608;11.462;2022-08-27T11:05:56;20.50;99.90
49042;DHT22;34859;51.608;11.462;2022-08-27T11:08:48;20.50;99.90
49042;DHT22;34859;51.608;11.462;2022-08-27T11:11:58;20.40;99.90
49042;DHT22;34859;51.608;11.462;2022-08-27T11:14:54;20.30;99.90
49042;DHT22;34859;51.608;11.462;2022-08-27T11:17:51;20.20;99.90
49042;DHT22;34859;51.608;11.462;2022-08-27T11:23:59;20.30;99.90
49042;DHT22;34859;51.608;11.462;2022-08-27T11:26:46;20.20;99.90
49042;DHT22;34859;51.608;11.462;2022-08-27T11:29:37;20.20;99.90
49042;DHT22;34859;51.608;11.462;2022-08-27T11:32:34;20.20;99.90
49042;DHT22;34859;51.608;11.462;2022-08-27T11:38:38;20.20;99.90
49042;DHT22;34859;51.608;11.462;2022-08-27T11:41:59;20.20;99.90
49042;DHT22;34859;51.608;11.462;2022-08-27T11:44:44;20.10;99.90
49042;DHT22;34859;51.608;11.462;2022-08-27T11:47:29;20.00;99.90
49042;DHT22;34859;51.608;11.462;2022-08-27T11:50:18;20.00;99.90
49042;DHT22;34859;51.608;11.462;2022-08-27T11:53:05;20.00;99.90
49042;DHT22;34859;51.608;11.462;2022-08-27T11:55:50;19.90;99.90
49042;DHT22;34859;51.608;11.462;2022-08-27T11:58:36;20.00;99.90
49042;DHT22;34859;51.608;11.462;2022-08-27T12:01:29;20.00;99.90
49042;DHT22;34859;51.608;11.462;2022-08-27T12:22:40;19.90;99.90
49042;DHT22;34859;51.608;11.462;2022-08-27T12:26:00;19.90;99.90
49042;DHT22;34859;51.608;11.462;2022-08-27T12:29:25;20.00;99.90
49042;DHT22;34859;51.608;11.462;2022-08-27T12:32:29;20.00;99.90
49042;DHT22;34859;51.608;11.462;2022-08-27T12:44:25;19.90;99.90
49042;DHT22;34859;51.608;11.462;2022-08-27T12:47:11;20.00;99.90
49042;DHT22;34859;51.608;11.462;2022-08-27T12:50:00;19.90;99.90
49042;DHT22;34859;51.608;11.462;2022-08-27T12:55:57;20.00;99.90
49042;DHT22;34859;51.608;11.462;2022-08-27T13:05:03;20.00;99.90
49042;DHT22;34859;51.608;11.462;2022-08-27T13:07:50;20.10;99.90
49042;DHT22;34859;51.608;11.462;2022-08-27T13:10:35;20.10;99.90
49042;DHT22;34859;51.608;11.462;2022-08-27T13:13:22;20.30;99.90
49042;DHT22;34859;51.608;11.462;2022-08-27T13:16:06;20.40;99.90
49042;DHT22;34859;51.608;11.462;2022-08-27T13:18:51;20.50;99.90
49042;DHT22;34859;51.608;11.462;2022-08-27T13:21:32;20.70;99.90
49042;DHT22;34859;51.608;11.462;2022-08-27T13:24:45;20.90;99.90
49042;DHT22;34859;51.608;11.462;2022-08-27T13:27:35;20.90;99.90
49042;DHT22;34859;51.608;11.462;2022-08-27T13:30:20;20.80;99.90
49042;DHT22;34859;51.608;11.462;2022-08-27T13:33:07;21.00;99.90
49042;DHT22;34859;51.608;11.462;2022-08-27T13:35:52;20.90;99.90
49042;DHT22;34859;51.608;11.462;2022-08-27T13:38:42;20.90;99.90
49042;DHT22;34859;51.608;11.462;2022-08-27T13:41:37;20.90;99.90
49042;DHT22;34859;51.608;11.462;2022-08-27T13:44:32;21.10;99.90
49042;DHT22;34859;51.608;11.462;2022-08-27T13:47:25;21.60;99.90
49042;DHT22;34859;51.608;11.462;2022-08-27T13:50:20;21.80;99.90
49042;DHT22;34859;51.608;11.462;2022-08-27T13:53:08;21.90;99.90
49042;DHT22;34859;51.608;11.462;2022-08-27T13:56:26;21.90;99.90
49042;DHT22;34859;51.608;11.462;2022-08-27T13:59:14;22.00;99.90
49042;DHT22;34859;51.608;11.462;2022-08-27T14:02:20;21.90;99.90
49042;DHT22;34859;51.608;11.462;2022-08-27T14:05:11;21.80;99.90
49042;DHT22;34859;51.608;11.462;2022-08-27T14:08:18;21.70;99.90
49042;DHT22;34859;51.608;11.462;2022-08-27T14:11:05;21.40;99.90
49042;DHT22;34859;51.608;11.462;2022-08-27T14:13:50;21.50;99.90
49042;DHT22;34859;51.608;11.462;2022-08-27T14:16:35;21.60;99.90
49042;DHT22;34859;51.608;11.462;2022-08-27T14:19:29;21.70;99.90
49042;DHT22;34859;51.608;11.462;2022-08-27T14:22:13;21.90;99.90
49042;DHT22;34859;51.608;11.462;2022-08-27T14:24:58;22.10;99.90
49042;DHT22;34859;51.608;11.462;2022-08-27T14:27:42;22.10;99.90
49042;DHT22;34859;51.608;11.462;2022-08-27T14:30:27;22.20;99.90
49042;DHT22;34859;51.608;11.462;2022-08-27T14:33:12;22.10;99.90
49042;DHT22;34859;51.608;11.462;2022-08-27T14:35:56;22.10;99.90
49042;DHT22;34859;51.608;11.462;2022-08-27T14:38:43;22.10;99.90
49042;DHT22;34859;51.608;11.462;2022-08-27T14:41:28;22.10;99.90
49042;DHT22;34859;51.608;11.462;2022-08-27T14:44:13;22.20;99.90
49042;DHT22;34859;51.608;11.462;2022-08-27T14:46:57;22.00;99.90
49042;DHT22;34859;51.608;11.462;2022-08-27T14:49:44;22.00;99.90
49042;DHT22;34859;51.608;11.462;2022-08-27T14:52:29;22.00;99.90
49042;DHT22;34859;51.608;11.462;2022-08-27T14:55:13;22.20;99.90
49042;DHT22;34859;51.608;11.462;2022-08-27T14:57:57;22.10;99.90
49042;DHT22;34859;51.608;11.462;2022-08-27T15:00:42;22.00;99.90
49042;DHT22;34859;51.608;11.462;2022-08-27T15:03:26;21.90;99.90
49042;DHT22;34859;51.608;11.462;2022-08-27T15:06:11;21.90;99.90
49042;DHT22;34859;51.608;11.462;2022-08-27T15:08:55;22.00;99.90
49042;DHT22;34859;51.608;11.462;2022-08-27T15:11:39;22.10;99.90
49042;DHT22;34859;51.608;11.462;2022-08-27T15:14:30;21.90;99.90
49042;DHT22;34859;51.608;11.462;2022-08-27T15:17:14;22.00;99.90
49042;DHT22;34859;51.608;11.462;2022-08-27T15:19:59;21.90;99.90
49042;DHT22;34859;51.608;11.462;2022-08-27T15:22:44;22.00;99.90
49042;DHT22;34859;51.608;11.462;2022-08-27T15:25:29;22.20;99.90
49042;DHT22;34859;51.608;11.462;2022-08-27T15:28:13;22.00;99.90
49042;DHT22;34859;51.608;11.462;2022-08-27T15:30:58;21.80;99.90
49042;DHT22;34859;51.608;11.462;2022-08-27T15:33:39;21.60;99.90
49042;DHT22;34859;51.608;11.462;2022-08-27T15:36:23;21.60;99.90
49042;DHT22;34859;51.608;11.462;2022-08-27T15:39:09;21.60;99.90
49042;DHT22;34859;51.608;11.462;2022-08-27T15:41:53;21.50;99.90
49042;DHT22;34859;51.608;11.462;2022-08-27T15:44:43;21.70;99.90
49042;DHT22;34859;51.608;11.462;2022-08-27T15:47:28;21.50;99.90
49042;DHT22;34859;51.608;11.462;2022-08-27T15:50:09;21.40;99.90
49042;DHT22;34859;51.608;11.462;2022-08-27T15:52:56;21.30;99.90
49042;DHT22;34859;51.608;11.462;2022-08-27T15:55:42;21.30;99.90
49042;DHT22;34859;51.608;11.462;2022-08-27T15:58:27;21.30;99.90
49042;DHT22;34859;51.608;11.462;2022-08-27T16:01:15;21.30;99.90
49042;DHT22;34859;51.608;11.462;2022-08-27T16:04:00;21.40;99.90
49042;DHT22;34859;51.608;11.462;2022-08-27T16:06:45;21.50;99.90
49042;DHT22;34859;51.608;11.462;2022-08-27T16:09:29;21.50;99.90
49042;DHT22;34859;51.608;11.462;2022-08-27T16:12:13;21.50;99.90
49042;DHT22;34859;51.608;11.462;2022-08-27T16:14:58;21.40;99.90
49042;DHT22;34859;51.608;11.462;2022-08-27T16:17:44;21.40;99.90
49042;DHT22;34859;51.608;11.462;2022-08-27T16:20:25;21.50;99.90
49042;DHT22;34859;51.608;11.462;2022-08-27T16:23:10;21.50;99.90
49042;DHT22;34859;51.608;11.462;2022-08-27T16:25:55;21.60;99.90
49042;DHT22;34859;51.608;11.462;2022-08-27T16:28:39;21.60;99.90
49042;DHT22;34859;51.608;11.462;2022-08-27T16:31:23;21.60;99.90
49042;DHT22;34859;51.608;11.462;2022-08-27T16:34:14;21.50;99.90
49042;DHT22;34859;51.608;11.462;2022-08-27T16:36:58;21.50;99.90
49042;DHT22;34859;51.608;11.462;2022-08-27T16:39:43;21.50;99.90
49042;DHT22;34859;51.608;11.462;2022-08-27T16:42:27;21.40;99.90
49042;DHT22;34859;51.608;11.462;2022-08-27T16:45:12;21.40;99.90
49042;DHT22;34859;51.608;11.462;2022-08-27T16:47:57;21.30;99.90
49042;DHT22;34859;51.608;11.462;2022-08-27T16:51:00;21.20;99.90
49042;DHT22;34859;51.608;11.462;2022-08-27T16:53:45;21.10;99.90
49042;DHT22;34859;51.608;11.462;2022-08-27T16:56:32;21.10;99.90
49042;DHT22;34859;51.608;11.462;2022-08-27T16:59:13;21.10;99.90
49042;DHT22;34859;51.608;11.462;2022-08-27T17:01:58;21.00;99.90
49042;DHT22;34859;51.608;11.462;2022-08-27T17:04:39;21.00;99.90
49042;DHT22;34859;51.608;11.462;2022-08-27T17:07:23;21.00;99.90
49042;DHT22;34859;51.608;11.462;2022-08-27T17:10:07;21.00;99.90
49042;DHT22;34859;51.608;11.462;2022-08-27T17:12:52;21.00;99.90
49042;DHT22;34859;51.608;11.462;2022-08-27T17:15:37;21.00;99.90
49042;DHT22;34859;51.608;11.462;2022-08-27T17:18:24;21.00;99.90
49042;DHT22;34859;51.608;11.462;2022-08-27T17:21:10;21.00;99.90
49042;DHT22;34859;51.608;11.462;2022-08-27T17:23:57;21.00;99.90
49042;DHT22;34859;51.608;11.462;2022-08-27T17:26:42;21.00;99.90
49042;DHT22;34859;51.608;11.462;2022-08-27T17:29:26;21.00;99.90
49042;DHT22;34859;51.608;11.462;2022-08-27T17:32:11;21.00;99.90
49042;DHT22;34859;51.608;11.462;2022-08-27T17:34:56;21.00;99.90
49042;DHT22;34859;51.608;11.462;2022-08-27T17:37:40;21.00;99.90
49042;DHT22;34859;51.608;11.462;2022-08-27T17:40:25;21.00;99.90
49042;DHT22;34859;51.608;11.462;2022-08-27T17:43:09;21.00;99.90
49042;DHT22;34859;51.608;11.462;2022-08-27T17:45:54;20.90;99.90
49042;DHT22;34859;51.608;11.462;2022-08-27T17:48:35;20.90;99.90
49042;DHT22;34859;51.608;11.462;2022-08-27T17:51:20;20.90;99.90
49042;DHT22;34859;51.608;11.462;2022-08-27T17:54:05;20.90;99.90
49042;DHT22;34859;51.608;11.462;2022-08-27T17:56:48;20.90;99.90
49042;DHT22;34859;51.608;11.462;2022-08-27T17:59:32;20.90;99.90
49042;DHT22;34859;51.608;11.462;2022-08-27T18:02:30;20.80;99.90
49042;DHT22;34859;51.608;11.462;2022-08-27T18:05:18;20.80;99.90
49042;DHT22;34859;51.608;11.462;2022-08-27T18:08:03;20.80;99.90
49042;DHT22;34859;51.608;11.462;2022-08-27T18:10:47;20.80;99.90
49042;DHT22;34859;51.608;11.462;2022-08-27T18:13:32;20.80;99.90
49042;DHT22;34859;51.608;11.462;2022-08-27T18:16:20;20.70;99.90
49042;DHT22;34859;51.608;11.462;2022-08-27T18:19:05;20.70;99.90
49042;DHT22;34859;51.608;11.462;2022-08-27T18:21:49;20.60;99.90
49042;DHT22;34859;51.608;11.462;2022-08-27T18:24:35;20.50;99.90
49042;DHT22;34859;51.608;11.462;2022-08-27T18:27:26;20.50;99.90
49042;DHT22;34859;51.608;11.462;2022-08-27T18:30:12;20.40;99.90